sensor_id;sensor_type;location;lat;lon;timestamp;P1;durP1;ratioP1;P2;durP2;ratioP2
15990;SDS011;8100;50.994;4.538;2024-01-15T00:01:33;12.30;;;5.35;;
15990;SDS011;8100;50.994;4.538;2024-01-15T00:04:20;12.23;;;5.40;;
15990;SDS011;8100;50.994;4.538;2024-01-15T00:07:08;12.68;;;5.82;;
15990;SDS011;8100;50.994;4.538;2024-01-15T00:09:55;12.13;;;4.50;;
15990;SDS011;8100;50.994;4.538;2024-01-15T00:12:43;11.88;;;5.53;;
15990;SDS011;8100;50.994;4.538;2024-01-15T00:15:30;9.35;;;4.72;;
15990;SDS011;8100;50.994;4.538;2024-01-15T00:18:17;13.88;;;5.85;;
15990;SDS011;8100;50.994;4.538;2024-01-15T00:21:04;12.30;;;4.97;;
15990;SDS011;8100;50.994;4.538;2024-01-15T00:23:51;9.85;;;4.72;;
15990;SDS011;8100;50.994;4.538;2024-01-15T00:26:39;11.10;;;4.80;;
15990;SDS011;8100;50.994;4.538;2024-01-15T00:29:27;11.18;;;4.95;;
15990;SDS011;8100;50.994;4.538;2024-01-15T00:32:15;13.52;;;4.63;;
15990;SDS011;8100;50.994;4.538;2024-01-15T00:35:01;10.15;;;4.55;;
15990;SDS011;8100;50.994;4.538;2024-01-15T00:37:49;10.25;;;4.40;;
15990;SDS011;8100;50.994;4.538;2024-01-15T00:40:36;8.02;;;3.78;;
15990;SDS011;8100;50.994;4.538;2024-01-15T00:43:23;8.88;;;4.00;;
15990;SDS011;8100;50.994;4.538;2024-01-15T00:46:12;10.05;;;3.72;;
15990;SDS011;8100;50.994;4.538;2024-01-15T00:48:59;7.25;;;3.67;;
15990;SDS011;8100;50.994;4.538;2024-01-15T00:51:45;6.85;;;3.33;;
15990;SDS011;8100;50.994;4.538;2024-01-15T00:54:33;6.60;;;3.20;;
15990;SDS011;8100;50.994;4.538;2024-01-15T00:57:21;6.68;;;3.13;;
15990;SDS011;8100;50.994;4.538;2024-01-15T01:00:08;6.38;;;3.30;;
15990;SDS011;8100;50.994;4.538;2024-01-15T01:02:56;5.72;;;3.13;;
15990;SDS011;8100;50.994;4.538;2024-01-15T01:05:43;4.82;;;3.03;;
15990;SDS011;8100;50.994;4.538;2024-01-15T01:08:31;8.90;;;3.78;;
15990;SDS011;8100;50.994;4.538;2024-01-15T01:11:18;6.70;;;3.55;;
15990;SDS011;8100;50.994;4.538;2024-01-15T01:14:04;6.28;;;3.03;;
15990;SDS011;8100;50.994;4.538;2024-01-15T01:16:52;9.70;;;4.03;;
15990;SDS011;8100;50.994;4.538;2024-01-15T01:19:40;8.02;;;3.65;;
15990;SDS011;8100;50.994;4.538;2024-01-15T01:22:27;6.60;;;3.45;;
15990;SDS011;8100;50.994;4.538;2024-01-15T01:25:14;6.53;;;3.50;;
15990;SDS011;8100;50.994;4.538;2024-01-15T01:28:01;5.60;;;3.00;;
15990;SDS011;8100;50.994;4.538;2024-01-15T01:30:48;5.75;;;3.10;;
15990;SDS011;8100;50.994;4.538;2024-01-15T01:33:37;5.63;;;2.78;;
15990;SDS011;8100;50.994;4.538;2024-01-15T01:36:26;4.95;;;2.67;;
15990;SDS011;8100;50.994;4.538;2024-01-15T01:39:13;4.40;;;2.53;;
15990;SDS011;8100;50.994;4.538;2024-01-15T01:42:00;5.72;;;2.80;;
15990;SDS011;8100;50.994;4.538;2024-01-15T01:44:47;3.67;;;2.35;;
15990;SDS011;8100;50.994;4.538;2024-01-15T01:47:34;4.32;;;2.15;;
15990;SDS011;8100;50.994;4.538;2024-01-15T01:50:21;4.32;;;2.38;;
15990;SDS011;8100;50.994;4.538;2024-01-15T01:53:10;4.45;;;2.50;;
15990;SDS011;8100;50.994;4.538;2024-01-15T01:55:57;3.35;;;2.10;;
15990;SDS011;8100;50.994;4.538;2024-01-15T01:58:44;4.25;;;2.33;;
15990;SDS011;8100;50.994;4.538;2024-01-15T02:01:33;3.90;;;1.95;;
15990;SDS011;8100;50.994;4.538;2024-01-15T02:04:20;3.47;;;2.40;;
15990;SDS011;8100;50.994;4.538;2024-01-15T02:07:09;4.28;;;1.80;;
15990;SDS011;8100;50.994;4.538;2024-01-15T02:09:58;3.17;;;1.77;;
15990;SDS011;8100;50.994;4.538;2024-01-15T02:12:45;3.83;;;1.95;;
15990;SDS011;8100;50.994;4.538;2024-01-15T02:15:33;3.58;;;1.80;;
15990;SDS011;8100;50.994;4.538;2024-01-15T02:18:20;3.42;;;1.23;;
15990;SDS011;8100;50.994;4.538;2024-01-15T02:21:07;3.50;;;1.25;;
15990;SDS011;8100;50.994;4.538;2024-01-15T02:23:56;2.88;;;0.98;;
15990;SDS011;8100;50.994;4.538;2024-01-15T02:26:43;2.40;;;1.20;;
15990;SDS011;8100;50.994;4.538;2024-01-15T02:29:30;1.67;;;1.20;;
15990;SDS011;8100;50.994;4.538;2024-01-15T02:32:17;2.03;;;1.02;;
15990;SDS011;8100;50.994;4.538;2024-01-15T02:35:04;1.98;;;1.30;;
15990;SDS011;8100;50.994;4.538;2024-01-15T02:37:51;3.42;;;1.40;;
15990;SDS011;8100;50.994;4.538;2024-01-15T02:40:40;2.30;;;1.05;;
15990;SDS011;8100;50.994;4.538;2024-01-15T02:43:27;2.10;;;1.33;;
15990;SDS011;8100;50.994;4.538;2024-01-15T02:46:14;1.67;;;1.05;;
15990;SDS011;8100;50.994;4.538;2024-01-15T02:49:01;2.40;;;1.30;;
15990;SDS011;8100;50.994;4.538;2024-01-15T02:51:48;1.88;;;1.30;;
15990;SDS011;8100;50.994;4.538;2024-01-15T02:54:35;2.15;;;1.20;;
15990;SDS011;8100;50.994;4.538;2024-01-15T02:57:23;3.33;;;1.40;;
15990;SDS011;8100;50.994;4.538;2024-01-15T03:00:10;4.13;;;1.50;;
15990;SDS011;8100;50.994;4.538;2024-01-15T03:02:58;2.30;;;1.15;;
15990;SDS011;8100;50.994;4.538;2024-01-15T03:05:45;2.65;;;1.45;;
15990;SDS011;8100;50.994;4.538;2024-01-15T03:08:32;3.35;;;1.38;;
15990;SDS011;8100;50.994;4.538;2024-01-15T03:11:20;2.15;;;1.15;;
15990;SDS011;8100;50.994;4.538;2024-01-15T03:14:08;2.22;;;1.30;;
15990;SDS011;8100;50.994;4.538;2024-01-15T03:16:56;1.63;;;1.20;;
15990;SDS011;8100;50.994;4.538;2024-01-15T03:19:43;3.72;;;1.15;;
15990;SDS011;8100;50.994;4.538;2024-01-15T03:22:29;2.03;;;1.10;;
15990;SDS011;8100;50.994;4.538;2024-01-15T03:25:16;3.10;;;1.00;;
15990;SDS011;8100;50.994;4.538;2024-01-15T03:28:04;1.40;;;1.20;;
15990;SDS011;8100;50.994;4.538;2024-01-15T03:30:52;1.73;;;1.13;;
15990;SDS011;8100;50.994;4.538;2024-01-15T03:33:39;3.55;;;1.13;;
15990;SDS011;8100;50.994;4.538;2024-01-15T03:36:26;3.53;;;1.15;;
15990;SDS011;8100;50.994;4.538;2024-01-15T03:39:13;5.38;;;1.20;;
15990;SDS011;8100;50.994;4.538;2024-01-15T03:42:00;3.38;;;1.10;;
15990;SDS011;8100;50.994;4.538;2024-01-15T03:44:47;2.92;;;1.20;;
15990;SDS011;8100;50.994;4.538;2024-01-15T03:47:36;1.05;;;0.85;;
15990;SDS011;8100;50.994;4.538;2024-01-15T03:50:23;2.47;;;1.35;;
15990;SDS011;8100;50.994;4.538;2024-01-15T03:53:10;2.60;;;1.30;;
15990;SDS011;8100;50.994;4.538;2024-01-15T03:55:57;3.40;;;1.10;;
15990;SDS011;8100;50.994;4.538;2024-01-15T03:58:44;1.80;;;0.90;;
15990;SDS011;8100;50.994;4.538;2024-01-15T04:01:31;3.28;;;1.00;;
15990;SDS011;8100;50.994;4.538;2024-01-15T04:04:19;1.25;;;0.88;;
15990;SDS011;8100;50.994;4.538;2024-01-15T04:07:06;1.20;;;0.98;;
15990;SDS011;8100;50.994;4.538;2024-01-15T04:09:53;1.77;;;1.40;;
15990;SDS011;8100;50.994;4.538;2024-01-15T04:12:40;2.38;;;1.23;;
15990;SDS011;8100;50.994;4.538;2024-01-15T04:15:27;3.40;;;1.10;;
15990;SDS011;8100;50.994;4.538;2024-01-15T04:18:15;1.70;;;1.20;;
15990;SDS011;8100;50.994;4.538;2024-01-15T04:21:05;2.03;;;1.27;;
15990;SDS011;8100;50.994;4.538;2024-01-15T04:23:52;2.08;;;1.20;;
15990;SDS011;8100;50.994;4.538;2024-01-15T04:26:39;2.95;;;1.58;;
15990;SDS011;8100;50.994;4.538;2024-01-15T04:29:26;2.38;;;1.50;;
15990;SDS011;8100;50.994;4.538;2024-01-15T04:32:13;4.65;;;1.60;;
15990;SDS011;8100;50.994;4.538;2024-01-15T04:35:00;2.90;;;1.48;;
15990;SDS011;8100;50.994;4.538;2024-01-15T04:37:48;2.95;;;1.45;;
15990;SDS011;8100;50.994;4.538;2024-01-15T04:40:35;3.17;;;1.77;;
15990;SDS011;8100;50.994;4.538;2024-01-15T04:43:22;2.22;;;1.45;;
15990;SDS011;8100;50.994;4.538;2024-01-15T04:46:09;3.75;;;1.98;;
15990;SDS011;8100;50.994;4.538;2024-01-15T04:48:56;3.53;;;1.90;;
15990;SDS011;8100;50.994;4.538;2024-01-15T04:51:43;3.28;;;1.77;;
15990;SDS011;8100;50.994;4.538;2024-01-15T04:54:31;4.80;;;1.80;;
15990;SDS011;8100;50.994;4.538;2024-01-15T04:57:18;3.92;;;1.90;;
15990;SDS011;8100;50.994;4.538;2024-01-15T05:00:06;4.75;;;2.00;;
15990;SDS011;8100;50.994;4.538;2024-01-15T05:02:54;3.40;;;1.70;;
15990;SDS011;8100;50.994;4.538;2024-01-15T05:05:41;3.45;;;1.83;;
15990;SDS011;8100;50.994;4.538;2024-01-15T05:08:29;4.65;;;2.20;;
15990;SDS011;8100;50.994;4.538;2024-01-15T05:11:17;4.55;;;2.00;;
15990;SDS011;8100;50.994;4.538;2024-01-15T05:14:04;5.40;;;1.80;;
15990;SDS011;8100;50.994;4.538;2024-01-15T05:16:51;4.70;;;1.58;;
15990;SDS011;8100;50.994;4.538;2024-01-15T05:19:38;5.18;;;2.30;;
15990;SDS011;8100;50.994;4.538;2024-01-15T05:22:25;5.57;;;1.70;;
15990;SDS011;8100;50.994;4.538;2024-01-15T05:25:12;3.42;;;1.80;;
15990;SDS011;8100;50.994;4.538;2024-01-15T05:28:01;2.78;;;1.35;;
15990;SDS011;8100;50.994;4.538;2024-01-15T05:30:48;6.25;;;2.08;;
15990;SDS011;8100;50.994;4.538;2024-01-15T05:33:36;4.18;;;1.63;;
15990;SDS011;8100;50.994;4.538;2024-01-15T05:36:23;3.03;;;1.83;;
15990;SDS011;8100;50.994;4.538;2024-01-15T05:39:10;1.70;;;1.25;;
15990;SDS011;8100;50.994;4.538;2024-01-15T05:41:58;5.05;;;1.60;;
15990;SDS011;8100;50.994;4.538;2024-01-15T05:44:47;4.13;;;1.20;;
15990;SDS011;8100;50.994;4.538;2024-01-15T05:47:34;1.70;;;1.20;;
15990;SDS011;8100;50.994;4.538;2024-01-15T05:50:21;3.17;;;1.40;;
15990;SDS011;8100;50.994;4.538;2024-01-15T05:53:08;2.08;;;1.20;;
15990;SDS011;8100;50.994;4.538;2024-01-15T05:55:55;2.20;;;1.30;;
15990;SDS011;8100;50.994;4.538;2024-01-15T05:58:42;2.33;;;1.05;;
15990;SDS011;8100;50.994;4.538;2024-01-15T06:01:30;3.53;;;1.65;;
15990;SDS011;8100;50.994;4.538;2024-01-15T06:04:17;2.95;;;1.10;;
15990;SDS011;8100;50.994;4.538;2024-01-15T06:07:04;1.83;;;0.70;;
15990;SDS011;8100;50.994;4.538;2024-01-15T06:09:51;9.88;;;1.80;;
15990;SDS011;8100;50.994;4.538;2024-01-15T06:12:38;3.67;;;1.20;;
15990;SDS011;8100;50.994;4.538;2024-01-15T06:15:25;2.28;;;1.15;;
15990;SDS011;8100;50.994;4.538;2024-01-15T06:18:13;3.40;;;0.90;;
15990;SDS011;8100;50.994;4.538;2024-01-15T06:21:00;2.30;;;0.90;;
15990;SDS011;8100;50.994;4.538;2024-01-15T06:23:47;5.10;;;0.75;;
15990;SDS011;8100;50.994;4.538;2024-01-15T06:26:34;1.88;;;0.77;;
15990;SDS011;8100;50.994;4.538;2024-01-15T06:29:21;1.50;;;0.63;;
15990;SDS011;8100;50.994;4.538;2024-01-15T06:32:09;4.07;;;1.10;;
15990;SDS011;8100;50.994;4.538;2024-01-15T06:34:57;7.60;;;1.40;;
15990;SDS011;8100;50.994;4.538;2024-01-15T06:37:44;4.57;;;0.75;;
15990;SDS011;8100;50.994;4.538;2024-01-15T06:40:31;2.85;;;0.70;;
15990;SDS011;8100;50.994;4.538;2024-01-15T06:43:18;4.63;;;0.77;;
15990;SDS011;8100;50.994;4.538;2024-01-15T06:46:05;4.43;;;0.73;;
15990;SDS011;8100;50.994;4.538;2024-01-15T06:48:52;6.60;;;1.20;;
15990;SDS011;8100;50.994;4.538;2024-01-15T06:51:41;2.83;;;0.98;;
15990;SDS011;8100;50.994;4.538;2024-01-15T06:54:28;2.50;;;0.80;;
15990;SDS011;8100;50.994;4.538;2024-01-15T06:57:15;1.58;;;0.52;;
15990;SDS011;8100;50.994;4.538;2024-01-15T07:00:02;3.10;;;0.70;;
15990;SDS011;8100;50.994;4.538;2024-01-15T07:02:52;2.95;;;0.70;;
15990;SDS011;8100;50.994;4.538;2024-01-15T07:05:40;4.95;;;0.80;;
15990;SDS011;8100;50.994;4.538;2024-01-15T07:08:29;1.85;;;0.70;;
15990;SDS011;8100;50.994;4.538;2024-01-15T07:11:16;8.32;;;1.00;;
15990;SDS011;8100;50.994;4.538;2024-01-15T07:14:03;1.70;;;0.60;;
15990;SDS011;8100;50.994;4.538;2024-01-15T07:16:50;2.03;;;0.60;;
15990;SDS011;8100;50.994;4.538;2024-01-15T07:19:38;0.98;;;0.55;;
15990;SDS011;8100;50.994;4.538;2024-01-15T07:22:25;0.85;;;0.63;;
15990;SDS011;8100;50.994;4.538;2024-01-15T07:25:13;2.95;;;0.70;;
15990;SDS011;8100;50.994;4.538;2024-01-15T07:28:01;1.88;;;0.60;;
15990;SDS011;8100;50.994;4.538;2024-01-15T07:30:48;2.25;;;0.80;;
15990;SDS011;8100;50.994;4.538;2024-01-15T07:33:36;1.40;;;0.55;;
15990;SDS011;8100;50.994;4.538;2024-01-15T07:36:22;2.60;;;0.68;;
15990;SDS011;8100;50.994;4.538;2024-01-15T07:39:10;3.10;;;0.88;;
15990;SDS011;8100;50.994;4.538;2024-01-15T07:41:58;1.45;;;0.68;;
15990;SDS011;8100;50.994;4.538;2024-01-15T07:44:45;3.40;;;0.60;;
15990;SDS011;8100;50.994;4.538;2024-01-15T07:47:32;2.97;;;1.00;;
15990;SDS011;8100;50.994;4.538;2024-01-15T07:50:19;7.60;;;0.90;;
15990;SDS011;8100;50.994;4.538;2024-01-15T07:53:06;2.92;;;0.60;;
15990;SDS011;8100;50.994;4.538;2024-01-15T07:55:53;4.20;;;0.70;;
15990;SDS011;8100;50.994;4.538;2024-01-15T07:58:42;2.63;;;0.85;;
15990;SDS011;8100;50.994;4.538;2024-01-15T08:01:29;1.35;;;0.60;;
15990;SDS011;8100;50.994;4.538;2024-01-15T08:04:16;3.17;;;0.95;;
15990;SDS011;8100;50.994;4.538;2024-01-15T08:07:03;6.07;;;1.00;;
15990;SDS011;8100;50.994;4.538;2024-01-15T08:09:51;1.35;;;0.60;;
15990;SDS011;8100;50.994;4.538;2024-01-15T08:12:38;1.50;;;0.70;;
15990;SDS011;8100;50.994;4.538;2024-01-15T08:15:26;2.90;;;0.60;;
15990;SDS011;8100;50.994;4.538;2024-01-15T08:18:13;2.72;;;0.80;;
15990;SDS011;8100;50.994;4.538;2024-01-15T08:21:00;7.63;;;1.02;;
15990;SDS011;8100;50.994;4.538;2024-01-15T08:23:48;2.05;;;0.70;;
15990;SDS011;8100;50.994;4.538;2024-01-15T08:26:35;3.20;;;1.08;;
15990;SDS011;8100;50.994;4.538;2024-01-15T08:29:21;1.38;;;0.75;;
15990;SDS011;8100;50.994;4.538;2024-01-15T08:32:11;1.95;;;0.80;;
15990;SDS011;8100;50.994;4.538;2024-01-15T08:35:00;2.15;;;0.90;;
15990;SDS011;8100;50.994;4.538;2024-01-15T08:37:49;4.75;;;1.40;;
15990;SDS011;8100;50.994;4.538;2024-01-15T08:40:36;1.60;;;0.70;;
15990;SDS011;8100;50.994;4.538;2024-01-15T08:43:23;3.70;;;1.10;;
15990;SDS011;8100;50.994;4.538;2024-01-15T08:46:10;2.47;;;0.90;;
15990;SDS011;8100;50.994;4.538;2024-01-15T08:48:58;2.22;;;1.00;;
15990;SDS011;8100;50.994;4.538;2024-01-15T08:51:45;2.90;;;1.20;;
15990;SDS011;8100;50.994;4.538;2024-01-15T08:54:33;2.30;;;0.90;;
15990;SDS011;8100;50.994;4.538;2024-01-15T08:57:20;2.28;;;0.70;;
15990;SDS011;8100;50.994;4.538;2024-01-15T09:00:07;2.22;;;0.63;;
15990;SDS011;8100;50.994;4.538;2024-01-15T09:02:55;1.98;;;0.80;;
15990;SDS011;8100;50.994;4.538;2024-01-15T09:05:44;2.25;;;0.90;;
15990;SDS011;8100;50.994;4.538;2024-01-15T09:08:31;2.15;;;0.85;;
15990;SDS011;8100;50.994;4.538;2024-01-15T09:11:20;3.10;;;0.80;;
15990;SDS011;8100;50.994;4.538;2024-01-15T09:14:07;2.22;;;0.80;;
15990;SDS011;8100;50.994;4.538;2024-01-15T09:16:54;4.03;;;1.00;;
15990;SDS011;8100;50.994;4.538;2024-01-15T09:19:41;4.22;;;0.80;;
15990;SDS011;8100;50.994;4.538;2024-01-15T09:22:29;6.32;;;0.85;;
15990;SDS011;8100;50.994;4.538;2024-01-15T09:25:17;3.45;;;0.90;;
15990;SDS011;8100;50.994;4.538;2024-01-15T09:28:04;2.08;;;0.57;;
15990;SDS011;8100;50.994;4.538;2024-01-15T09:30:53;1.95;;;1.10;;
15990;SDS011;8100;50.994;4.538;2024-01-15T09:33:40;3.05;;;1.00;;
15990;SDS011;8100;50.994;4.538;2024-01-15T09:36:27;2.55;;;0.73;;
15990;SDS011;8100;50.994;4.538;2024-01-15T09:39:15;2.60;;;0.75;;
15990;SDS011;8100;50.994;4.538;2024-01-15T09:42:02;2.17;;;0.80;;
15990;SDS011;8100;50.994;4.538;2024-01-15T09:44:50;2.97;;;0.82;;
15990;SDS011;8100;50.994;4.538;2024-01-15T09:47:38;3.83;;;1.13;;
15990;SDS011;8100;50.994;4.538;2024-01-15T09:50:27;2.28;;;0.90;;
15990;SDS011;8100;50.994;4.538;2024-01-15T09:53:13;2.85;;;0.98;;
15990;SDS011;8100;50.994;4.538;2024-01-15T09:56:03;6.18;;;1.08;;
15990;SDS011;8100;50.994;4.538;2024-01-15T09:58:51;3.47;;;0.90;;
15990;SDS011;8100;50.994;4.538;2024-01-15T10:01:40;4.80;;;1.00;;
15990;SDS011;8100;50.994;4.538;2024-01-15T10:04:28;4.03;;;1.00;;
15990;SDS011;8100;50.994;4.538;2024-01-15T10:07:15;2.38;;;0.90;;
15990;SDS011;8100;50.994;4.538;2024-01-15T10:10:04;4.10;;;0.77;;
15990;SDS011;8100;50.994;4.538;2024-01-15T10:12:53;3.85;;;1.08;;
15990;SDS011;8100;50.994;4.538;2024-01-15T10:15:41;2.10;;;0.60;;
15990;SDS011;8100;50.994;4.538;2024-01-15T10:18:32;3.22;;;0.80;;
15990;SDS011;8100;50.994;4.538;2024-01-15T10:21:19;3.80;;;0.80;;
15990;SDS011;8100;50.994;4.538;2024-01-15T10:24:06;1.52;;;0.80;;
15990;SDS011;8100;50.994;4.538;2024-01-15T10:26:55;2.80;;;1.05;;
15990;SDS011;8100;50.994;4.538;2024-01-15T10:29:53;5.03;;;0.93;;
15990;SDS011;8100;50.994;4.538;2024-01-15T10:32:40;2.38;;;0.90;;
15990;SDS011;8100;50.994;4.538;2024-01-15T10:35:28;1.48;;;0.60;;
15990;SDS011;8100;50.994;4.538;2024-01-15T10:38:16;2.38;;;1.00;;
15990;SDS011;8100;50.994;4.538;2024-01-15T10:41:07;3.10;;;0.80;;
15990;SDS011;8100;50.994;4.538;2024-01-15T10:43:54;2.22;;;0.75;;
15990;SDS011;8100;50.994;4.538;2024-01-15T10:46:42;3.08;;;0.80;;
15990;SDS011;8100;50.994;4.538;2024-01-15T10:49:30;2.83;;;0.88;;
15990;SDS011;8100;50.994;4.538;2024-01-15T10:52:17;2.70;;;1.10;;
15990;SDS011;8100;50.994;4.538;2024-01-15T10:55:05;1.25;;;0.70;;
15990;SDS011;8100;50.994;4.538;2024-01-15T10:57:54;4.43;;;0.80;;
15990;SDS011;8100;50.994;4.538;2024-01-15T11:00:41;4.15;;;1.00;;
15990;SDS011;8100;50.994;4.538;2024-01-15T11:03:31;2.67;;;0.63;;
15990;SDS011;8100;50.994;4.538;2024-01-15T11:06:18;5.25;;;0.90;;
15990;SDS011;8100;50.994;4.538;2024-01-15T11:09:06;4.18;;;0.75;;
15990;SDS011;8100;50.994;4.538;2024-01-15T11:12:07;2.83;;;0.90;;
15990;SDS011;8100;50.994;4.538;2024-01-15T11:15:01;3.65;;;1.25;;
15990;SDS011;8100;50.994;4.538;2024-01-15T11:17:59;2.90;;;0.70;;
15990;SDS011;8100;50.994;4.538;2024-01-15T11:24:11;1.55;;;0.70;;
15990;SDS011;8100;50.994;4.538;2024-01-15T11:27:39;4.40;;;0.70;;
15990;SDS011;8100;50.994;4.538;2024-01-15T11:30:26;3.92;;;0.60;;
15990;SDS011;8100;50.994;4.538;2024-01-15T11:36:18;5.50;;;0.85;;
15990;SDS011;8100;50.994;4.538;2024-01-15T11:42:28;1.50;;;0.50;;
15990;SDS011;8100;50.994;4.538;2024-01-15T11:45:17;1.75;;;0.80;;
15990;SDS011;8100;50.994;4.538;2024-01-15T11:48:09;2.80;;;0.55;;
15990;SDS011;8100;50.994;4.538;2024-01-15T11:50:57;4.45;;;0.82;;
15990;SDS011;8100;50.994;4.538;2024-01-15T11:53:47;2.53;;;0.55;;
15990;SDS011;8100;50.994;4.538;2024-01-15T11:56:39;3.88;;;0.70;;
15990;SDS011;8100;50.994;4.538;2024-01-15T11:59:27;4.32;;;0.70;;
15990;SDS011;8100;50.994;4.538;2024-01-15T12:02:15;6.60;;;1.20;;
15990;SDS011;8100;50.994;4.538;2024-01-15T12:05:02;2.17;;;0.70;;
15990;SDS011;8100;50.994;4.538;2024-01-15T12:07:49;1.02;;;0.55;;
15990;SDS011;8100;50.994;4.538;2024-01-15T12:10:37;2.42;;;0.70;;
15990;SDS011;8100;50.994;4.538;2024-01-15T12:13:27;1.35;;;0.50;;
15990;SDS011;8100;50.994;4.538;2024-01-15T12:16:14;4.32;;;0.70;;
15990;SDS011;8100;50.994;4.538;2024-01-15T12:19:01;2.10;;;0.60;;
15990;SDS011;8100;50.994;4.538;2024-01-15T12:21:50;2.22;;;0.50;;
15990;SDS011;8100;50.994;4.538;2024-01-15T12:24:37;1.98;;;0.60;;
15990;SDS011;8100;50.994;4.538;2024-01-15T12:27:24;2.70;;;0.80;;
15990;SDS011;8100;50.994;4.538;2024-01-15T12:30:13;1.88;;;0.63;;
15990;SDS011;8100;50.994;4.538;2024-01-15T12:33:01;3.10;;;0.47;;
15990;SDS011;8100;50.994;4.538;2024-01-15T12:35:52;1.50;;;0.40;;
15990;SDS011;8100;50.994;4.538;2024-01-15T12:38:39;4.00;;;1.02;;
15990;SDS011;8100;50.994;4.538;2024-01-15T12:41:26;3.63;;;0.70;;
15990;SDS011;8100;50.994;4.538;2024-01-15T12:44:13;1.70;;;0.65;;
15990;SDS011;8100;50.994;4.538;2024-01-15T12:47:02;3.45;;;0.70;;
15990;SDS011;8100;50.994;4.538;2024-01-15T12:49:51;4.45;;;0.50;;
15990;SDS011;8100;50.994;4.538;2024-01-15T12:52:40;1.45;;;0.50;;
15990;SDS011;8100;50.994;4.538;2024-01-15T12:55:27;0.88;;;0.40;;
15990;SDS011;8100;50.994;4.538;2024-01-15T12:58:14;1.27;;;0.40;;
15990;SDS011;8100;50.994;4.538;2024-01-15T13:01:01;0.82;;;0.43;;
15990;SDS011;8100;50.994;4.538;2024-01-15T13:03:49;0.30;;;0.30;;
15990;SDS011;8100;50.994;4.538;2024-01-15T13:06:36;0.45;;;0.20;;
15990;SDS011;8100;50.994;4.538;2024-01-15T13:09:23;0.98;;;0.40;;
15990;SDS011;8100;50.994;4.538;2024-01-15T13:12:10;0.95;;;0.40;;
15990;SDS011;8100;50.994;4.538;2024-01-15T13:14:57;2.13;;;0.57;;
15990;SDS011;8100;50.994;4.538;2024-01-15T13:17:44;1.02;;;0.35;;
15990;SDS011;8100;50.994;4.538;2024-01-15T13:20:33;1.05;;;0.50;;
15990;SDS011;8100;50.994;4.538;2024-01-15T13:23:20;0.32;;;0.22;;
15990;SDS011;8100;50.994;4.538;2024-01-15T13:26:07;0.70;;;0.43;;
15990;SDS011;8100;50.994;4.538;2024-01-15T13:28:54;0.38;;;0.30;;
15990;SDS011;8100;50.994;4.538;2024-01-15T13:31:41;0.45;;;0.32;;
15990;SDS011;8100;50.994;4.538;2024-01-15T13:34:28;0.40;;;0.28;;
15990;SDS011;8100;50.994;4.538;2024-01-15T13:37:16;2.58;;;0.68;;
15990;SDS011;8100;50.994;4.538;2024-01-15T13:40:03;1.00;;;0.57;;
15990;SDS011;8100;50.994;4.538;2024-01-15T13:42:54;0.63;;;0.20;;
15990;SDS011;8100;50.994;4.538;2024-01-15T13:45:41;0.30;;;0.30;;
15990;SDS011;8100;50.994;4.538;2024-01-15T13:48:28;0.60;;;0.40;;
15990;SDS011;8100;50.994;4.538;2024-01-15T13:51:15;1.55;;;0.30;;
15990;SDS011;8100;50.994;4.538;2024-01-15T13:54:04;0.50;;;0.30;;
15990;SDS011;8100;50.994;4.538;2024-01-15T13:56:50;2.78;;;0.85;;
15990;SDS011;8100;50.994;4.538;2024-01-15T13:59:37;0.85;;;0.40;;
15990;SDS011;8100;50.994;4.538;2024-01-15T14:02:25;2.97;;;0.90;;
15990;SDS011;8100;50.994;4.538;2024-01-15T14:05:12;1.50;;;0.80;;
15990;SDS011;8100;50.994;4.538;2024-01-15T14:07:59;1.20;;;0.47;;
15990;SDS011;8100;50.994;4.538;2024-01-15T14:10:47;0.43;;;0.25;;
15990;SDS011;8100;50.994;4.538;2024-01-15T14:13:34;1.80;;;0.68;;
15990;SDS011;8100;50.994;4.538;2024-01-15T14:16:21;0.90;;;0.50;;
15990;SDS011;8100;50.994;4.538;2024-01-15T14:19:08;0.40;;;0.20;;
15990;SDS011;8100;50.994;4.538;2024-01-15T14:21:55;0.75;;;0.30;;
15990;SDS011;8100;50.994;4.538;2024-01-15T14:24:42;1.50;;;0.38;;
15990;SDS011;8100;50.994;4.538;2024-01-15T14:27:31;1.40;;;0.47;;
15990;SDS011;8100;50.994;4.538;2024-01-15T14:30:18;1.55;;;0.63;;
15990;SDS011;8100;50.994;4.538;2024-01-15T14:33:04;1.05;;;0.40;;
15990;SDS011;8100;50.994;4.538;2024-01-15T14:35:52;0.43;;;0.32;;
15990;SDS011;8100;50.994;4.538;2024-01-15T14:38:39;2.80;;;0.52;;
15990;SDS011;8100;50.994;4.538;2024-01-15T14:41:26;0.85;;;0.70;;
15990;SDS011;8100;50.994;4.538;2024-01-15T14:44:14;0.85;;;0.50;;
15990;SDS011;8100;50.994;4.538;2024-01-15T14:47:01;1.00;;;0.50;;
15990;SDS011;8100;50.994;4.538;2024-01-15T14:49:48;1.02;;;0.50;;
15990;SDS011;8100;50.994;4.538;2024-01-15T14:52:35;0.85;;;0.40;;
15990;SDS011;8100;50.994;4.538;2024-01-15T14:55:22;2.05;;;0.52;;
15990;SDS011;8100;50.994;4.538;2024-01-15T14:58:10;0.55;;;0.50;;
15990;SDS011;8100;50.994;4.538;2024-01-15T15:00:59;2.35;;;0.80;;
15990;SDS011;8100;50.994;4.538;2024-01-15T15:03:46;2.60;;;0.60;;
15990;SDS011;8100;50.994;4.538;2024-01-15T15:06:33;0.90;;;0.40;;
15990;SDS011;8100;50.994;4.538;2024-01-15T15:09:20;0.68;;;0.40;;
15990;SDS011;8100;50.994;4.538;2024-01-15T15:12:07;0.60;;;0.40;;
15990;SDS011;8100;50.994;4.538;2024-01-15T15:14:54;1.92;;;0.60;;
15990;SDS011;8100;50.994;4.538;2024-01-15T15:17:43;2.67;;;0.50;;
15990;SDS011;8100;50.994;4.538;2024-01-15T15:20:30;3.13;;;0.50;;
15990;SDS011;8100;50.994;4.538;2024-01-15T15:23:17;1.85;;;0.57;;
15990;SDS011;8100;50.994;4.538;2024-01-15T15:26:04;0.75;;;0.35;;
15990;SDS011;8100;50.994;4.538;2024-01-15T15:28:52;3.22;;;0.47;;
15990;SDS011;8100;50.994;4.538;2024-01-15T15:31:39;1.10;;;0.40;;
15990;SDS011;8100;50.994;4.538;2024-01-15T15:34:27;1.50;;;0.70;;
15990;SDS011;8100;50.994;4.538;2024-01-15T15:37:14;1.27;;;0.65;;
15990;SDS011;8100;50.994;4.538;2024-01-15T15:40:01;1.55;;;0.60;;
15990;SDS011;8100;50.994;4.538;2024-01-15T15:42:53;1.80;;;0.50;;
15990;SDS011;8100;50.994;4.538;2024-01-15T15:45:40;3.88;;;0.75;;
15990;SDS011;8100;50.994;4.538;2024-01-15T15:48:27;1.48;;;0.60;;
15990;SDS011;8100;50.994;4.538;2024-01-15T15:51:15;2.45;;;0.60;;
15990;SDS011;8100;50.994;4.538;2024-01-15T15:54:02;2.70;;;0.90;;
15990;SDS011;8100;50.994;4.538;2024-01-15T15:56:50;0.60;;;0.50;;
15990;SDS011;8100;50.994;4.538;2024-01-15T15:59:37;3.35;;;0.80;;
15990;SDS011;8100;50.994;4.538;2024-01-15T16:02:24;1.60;;;0.60;;
15990;SDS011;8100;50.994;4.538;2024-01-15T16:05:11;2.47;;;0.60;;
15990;SDS011;8100;50.994;4.538;2024-01-15T16:08:00;1.67;;;0.70;;
15990;SDS011;8100;50.994;4.538;2024-01-15T16:10:48;2.35;;;0.65;;
15990;SDS011;8100;50.994;4.538;2024-01-15T16:13:36;3.35;;;0.90;;
15990;SDS011;8100;50.994;4.538;2024-01-15T16:16:23;1.52;;;0.80;;
15990;SDS011;8100;50.994;4.538;2024-01-15T16:19:10;1.60;;;0.93;;
15990;SDS011;8100;50.994;4.538;2024-01-15T16:21:58;1.77;;;0.80;;
15990;SDS011;8100;50.994;4.538;2024-01-15T16:24:47;1.15;;;0.60;;
15990;SDS011;8100;50.994;4.538;2024-01-15T16:27:34;2.63;;;1.02;;
15990;SDS011;8100;50.994;4.538;2024-01-15T16:30:21;4.03;;;1.23;;
15990;SDS011;8100;50.994;4.538;2024-01-15T16:33:08;5.45;;;0.93;;
15990;SDS011;8100;50.994;4.538;2024-01-15T16:35:57;2.45;;;0.90;;
15990;SDS011;8100;50.994;4.538;2024-01-15T16:38:44;2.88;;;1.17;;
15990;SDS011;8100;50.994;4.538;2024-01-15T16:41:33;1.77;;;1.00;;
15990;SDS011;8100;50.994;4.538;2024-01-15T16:44:20;2.05;;;1.35;;
15990;SDS011;8100;50.994;4.538;2024-01-15T16:47:07;3.47;;;1.42;;
15990;SDS011;8100;50.994;4.538;2024-01-15T16:49:54;6.60;;;1.30;;
15990;SDS011;8100;50.994;4.538;2024-01-15T16:52:41;3.70;;;0.90;;
15990;SDS011;8100;50.994;4.538;2024-01-15T16:55:28;1.50;;;0.82;;
15990;SDS011;8100;50.994;4.538;2024-01-15T16:58:16;2.20;;;1.00;;
15990;SDS011;8100;50.994;4.538;2024-01-15T17:01:04;3.28;;;0.88;;
15990;SDS011;8100;50.994;4.538;2024-01-15T17:03:52;2.25;;;0.70;;
15990;SDS011;8100;50.994;4.538;2024-01-15T17:06:39;2.03;;;0.70;;
15990;SDS011;8100;50.994;4.538;2024-01-15T17:09:26;1.70;;;0.90;;
15990;SDS011;8100;50.994;4.538;2024-01-15T17:12:13;3.00;;;1.50;;
15990;SDS011;8100;50.994;4.538;2024-01-15T17:15:02;5.15;;;1.65;;